createdAt,value
2018-01-04T00:01:01.319Z,3.65
2018-01-04T00:03:27.518Z,3.90
2018-01-04T00:05:53.770Z,3.25
2018-01-04T00:08:19.966Z,5.00
2018-01-04T00:10:46.132Z,3.33
2018-01-04T00:13:12.417Z,3.62
2018-01-04T00:15:38.638Z,2.62
2018-01-04T00:18:05.218Z,3.58
2018-01-04T00:20:31.754Z,3.08
2018-01-04T00:22:57.986Z,3.37
2018-01-04T00:25:24.188Z,3.17
2018-01-04T00:27:50.517Z,2.97
2018-01-04T00:30:16.733Z,2.80
2018-01-04T00:32:44.081Z,3.65
2018-01-04T00:35:10.364Z,3.17
2018-01-04T00:37:36.593Z,3.95
2018-01-04T00:40:02.835Z,3.05
2018-01-04T00:42:29.121Z,3.87
2018-01-04T00:44:55.295Z,3.55
2018-01-04T00:47:21.521Z,3.25
2018-01-04T00:49:47.997Z,3.70
2018-01-04T00:52:14.183Z,2.70
2018-01-04T00:54:40.394Z,2.90
2018-01-04T00:57:06.669Z,4.05
2018-01-04T00:59:32.877Z,3.40
2018-01-04T01:01:59.099Z,3.58
2018-01-04T01:04:25.589Z,3.03
2018-01-04T01:06:51.798Z,3.20
2018-01-04T01:09:17.998Z,2.67
2018-01-04T01:11:44.271Z,2.70
2018-01-04T01:14:10.594Z,2.80
2018-01-04T01:16:36.815Z,3.40
2018-01-04T01:19:03.047Z,3.00
2018-01-04T01:21:29.245Z,3.35
2018-01-04T01:23:55.466Z,3.30
2018-01-04T01:26:21.956Z,3.08
2018-01-04T01:28:48.166Z,2.90
2018-01-04T01:31:14.473Z,3.50
2018-01-04T01:33:40.977Z,3.03
2018-01-04T01:36:07.160Z,3.15
2018-01-04T01:38:33.371Z,2.20
2018-01-04T01:40:59.630Z,3.12
2018-01-04T01:43:25.849Z,3.10
2018-01-04T01:45:52.296Z,3.00
2018-01-04T01:48:18.586Z,2.60
2018-01-04T01:50:44.806Z,3.30
2018-01-04T01:53:11.073Z,2.67
2018-01-04T01:55:37.280Z,3.15
2018-01-04T01:58:03.506Z,2.55
2018-01-04T02:00:29.729Z,3.05
2018-01-04T02:02:56.035Z,2.72
2018-01-04T02:05:22.451Z,3.15
2018-01-04T02:07:48.636Z,3.70
2018-01-04T02:10:15.113Z,2.78
2018-01-04T02:12:41.330Z,2.78
2018-01-04T02:15:07.564Z,2.60
2018-01-04T02:17:34.185Z,2.80
2018-01-04T02:23:17.153Z,2.78
2018-01-04T02:25:45.218Z,2.85
2018-01-04T02:28:23.597Z,2.55
2018-01-04T02:31:02.749Z,3.15
2018-01-04T02:33:40.843Z,2.30
2018-01-04T02:36:19.118Z,2.50
2018-01-04T02:38:57.242Z,2.70
2018-01-04T02:41:35.856Z,2.87
2018-01-04T02:44:02.128Z,2.70
2018-01-04T02:46:28.569Z,2.75
2018-01-04T02:48:54.763Z,2.40
2018-01-04T02:51:21.012Z,2.97
2018-01-04T02:53:47.189Z,2.50
2018-01-04T02:56:13.389Z,3.08
2018-01-04T02:58:39.665Z,2.33
2018-01-04T03:01:05.883Z,2.60
2018-01-04T03:03:32.104Z,2.65
2018-01-04T03:05:58.365Z,2.17
2018-01-04T03:08:24.575Z,2.47
2018-01-04T03:10:51.041Z,2.50
2018-01-04T03:13:17.333Z,2.22
2018-01-04T03:15:43.800Z,2.42
2018-01-04T03:18:10.013Z,1.83
2018-01-04T03:20:36.503Z,2.40
2018-01-04T03:23:09.054Z,2.95
2018-01-04T03:25:41.477Z,1.90
2018-01-04T03:28:13.716Z,2.10
2018-01-04T03:30:46.051Z,2.37
2018-01-04T03:33:18.301Z,2.80
2018-01-04T03:35:50.618Z,2.10
2018-01-04T03:38:22.730Z,2.00
2018-01-04T03:40:54.878Z,2.47
2018-01-04T03:43:27.091Z,2.10
2018-01-04T03:45:59.256Z,1.95
2018-01-04T03:48:27.366Z,2.35
2018-01-04T03:50:59.922Z,2.42
2018-01-04T03:53:32.372Z,2.07
2018-01-04T03:59:05.633Z,2.00
2018-01-04T04:01:37.769Z,2.05
2018-01-04T04:04:04.292Z,2.62
2018-01-04T04:06:32.402Z,1.77
2018-01-04T04:08:58.917Z,1.90
2018-01-04T04:11:25.095Z,1.95
2018-01-04T04:13:51.319Z,2.37
2018-01-04T04:16:17.650Z,2.03
2018-01-04T04:18:43.874Z,1.98
2018-01-04T04:21:10.084Z,2.72
2018-01-04T04:23:36.305Z,1.70
2018-01-04T04:26:02.542Z,2.28
2018-01-04T04:28:28.936Z,1.58
2018-01-04T04:30:55.115Z,2.05
2018-01-04T04:33:21.342Z,1.87
2018-01-04T04:35:47.587Z,2.17
2018-01-04T04:38:14.148Z,2.05
2018-01-04T04:40:40.340Z,1.87
2018-01-04T04:43:06.569Z,2.22
2018-01-04T04:45:32.767Z,1.77
2018-01-04T04:47:58.960Z,2.58
2018-01-04T04:50:25.218Z,2.55
2018-01-04T04:52:51.422Z,3.20
2018-01-04T04:55:17.605Z,2.22
2018-01-04T04:57:44.180Z,1.95
2018-01-04T05:00:10.400Z,2.12
2018-01-04T05:02:36.817Z,1.90
2018-01-04T05:05:03.068Z,2.30
2018-01-04T05:07:29.313Z,2.35
2018-01-04T05:09:55.531Z,1.80
2018-01-04T05:12:21.772Z,2.13
2018-01-04T05:14:47.956Z,2.20
2018-01-04T05:17:14.180Z,1.87
2018-01-04T05:19:40.744Z,2.00
2018-01-04T05:22:06.930Z,1.70
2018-01-04T05:24:33.117Z,2.08
2018-01-04T05:26:59.386Z,1.83
2018-01-04T05:29:25.869Z,2.03
2018-01-04T05:31:52.077Z,2.23
2018-01-04T05:34:18.629Z,1.98
2018-01-04T05:36:44.810Z,2.08
2018-01-04T05:39:10.995Z,2.10
2018-01-04T05:41:37.278Z,2.33
2018-01-04T05:44:03.501Z,2.95
2018-01-04T05:46:29.727Z,1.70
2018-01-04T05:48:55.992Z,2.03
2018-01-04T05:51:22.213Z,2.15
2018-01-04T05:53:48.445Z,1.70
2018-01-04T05:56:14.702Z,1.85
2018-01-04T05:58:40.937Z,1.95
2018-01-04T06:01:07.119Z,2.47
2018-01-04T06:03:33.608Z,2.08
2018-01-04T06:05:59.820Z,2.10
2018-01-04T06:08:26.044Z,1.50
2018-01-04T06:10:52.526Z,1.90
2018-01-04T06:13:18.728Z,1.75
2018-01-04T06:15:44.908Z,2.10
2018-01-04T06:18:11.169Z,1.87
2018-01-04T06:20:37.368Z,2.05
2018-01-04T06:23:03.912Z,2.22
2018-01-04T06:25:30.413Z,2.17
2018-01-04T06:27:56.601Z,1.87
2018-01-04T06:30:22.807Z,1.90
2018-01-04T06:32:49.064Z,1.90
2018-01-04T06:35:15.252Z,1.80
2018-01-04T06:37:41.454Z,1.83
2018-01-04T06:40:07.725Z,1.90
2018-01-04T06:42:33.902Z,1.90
2018-01-04T06:45:00.110Z,1.70
2018-01-04T06:47:26.611Z,1.98
2018-01-04T06:49:53.240Z,2.20
2018-01-04T06:52:19.438Z,2.00
2018-01-04T06:54:45.886Z,2.00
2018-01-04T06:57:12.107Z,2.37
2018-01-04T06:59:38.319Z,1.83
2018-01-04T07:02:04.595Z,1.90
2018-01-04T07:04:30.772Z,1.70
2018-01-04T07:06:56.992Z,1.62
2018-01-04T07:09:23.260Z,1.95
2018-01-04T07:11:49.489Z,1.95
2018-01-04T07:14:15.682Z,1.67
2018-01-04T07:16:41.937Z,2.37
2018-01-04T07:19:08.138Z,1.65
2018-01-04T07:21:34.339Z,1.50
2018-01-04T07:24:00.628Z,1.65
2018-01-04T07:26:26.874Z,1.90
2018-01-04T07:28:53.158Z,2.20
2018-01-04T07:31:19.431Z,1.48
2018-01-04T07:33:45.659Z,2.08
2018-01-04T07:36:12.045Z,2.37
2018-01-04T07:38:38.315Z,1.70
2018-01-04T07:41:04.562Z,1.95
2018-01-04T07:43:30.744Z,1.30
2018-01-04T07:45:57.035Z,1.60
2018-01-04T07:48:23.219Z,1.80
2018-01-04T07:50:49.401Z,1.90
2018-01-04T07:53:21.813Z,2.10
2018-01-04T07:55:48.261Z,2.30
2018-01-04T07:58:14.463Z,1.67
2018-01-04T08:00:40.760Z,1.58
2018-01-04T08:03:06.956Z,1.83
2018-01-04T08:05:33.189Z,1.45
2018-01-04T08:07:59.516Z,2.45
2018-01-04T08:10:25.710Z,1.80
2018-01-04T08:12:51.916Z,1.70
2018-01-04T08:15:18.156Z,1.83
2018-01-04T08:17:44.383Z,1.75
2018-01-04T08:20:10.607Z,2.33
2018-01-04T08:22:36.888Z,1.90
2018-01-04T08:25:03.105Z,2.12
2018-01-04T08:27:29.320Z,1.62
2018-01-04T08:29:55.835Z,1.85
2018-01-04T08:32:22.053Z,1.90
2018-01-04T08:34:48.495Z,1.67
2018-01-04T08:37:14.752Z,2.07
2018-01-04T08:39:40.925Z,2.17
2018-01-04T08:42:07.123Z,1.67
2018-01-04T08:44:33.419Z,2.47
2018-01-04T08:46:59.875Z,1.40
2018-01-04T08:49:26.074Z,2.00
2018-01-04T08:51:52.375Z,1.90
2018-01-04T08:54:18.599Z,1.90
2018-01-04T08:56:44.816Z,2.17
2018-01-04T08:59:11.115Z,1.80
2018-01-04T09:01:37.323Z,1.73
2018-01-04T09:04:04.350Z,2.10
2018-01-04T09:06:30.617Z,2.00
2018-01-04T09:08:56.829Z,2.00
2018-01-04T09:11:23.011Z,1.90
2018-01-04T09:13:49.571Z,2.75
2018-01-04T09:16:15.796Z,1.90
2018-01-04T09:18:42.008Z,2.53
2018-01-04T09:21:08.312Z,1.92
2018-01-04T09:23:34.825Z,1.90
2018-01-04T09:26:01.049Z,1.90
2018-01-04T09:28:27.313Z,2.08
2018-01-04T09:30:53.509Z,2.37
2018-01-04T09:33:19.684Z,1.95
2018-01-04T09:35:45.978Z,2.40
2018-01-04T09:38:12.389Z,2.08
2018-01-04T09:40:38.621Z,1.62
2018-01-04T09:43:04.878Z,1.87
2018-01-04T09:45:31.111Z,1.67
2018-01-04T09:47:57.283Z,2.50
2018-01-04T09:50:23.553Z,2.17
2018-01-04T09:52:49.725Z,1.70
2018-01-04T09:55:15.936Z,1.80
2018-01-04T09:57:42.209Z,1.70
2018-01-04T10:00:08.394Z,1.77
2018-01-04T10:02:34.625Z,1.47
2018-01-04T10:05:01.258Z,1.73
2018-01-04T10:07:27.283Z,2.20
2018-01-04T10:09:53.734Z,1.67
2018-01-04T10:12:20.020Z,1.50
2018-01-04T10:14:46.234Z,2.10
2018-01-04T10:17:12.439Z,1.80
2018-01-04T10:19:38.716Z,1.90
2018-01-04T10:22:04.984Z,1.73
2018-01-04T10:24:31.202Z,1.80
2018-01-04T10:26:57.496Z,1.90
2018-01-04T10:29:23.721Z,2.15
2018-01-04T10:31:49.957Z,1.75
2018-01-04T10:34:16.241Z,1.70
2018-01-04T10:36:42.505Z,1.98
2018-01-04T10:39:08.714Z,1.90
2018-01-04T10:41:34.959Z,2.00
2018-01-04T10:44:01.225Z,1.90
2018-01-04T10:46:27.449Z,2.13
2018-01-04T10:48:53.694Z,1.80
2018-01-04T10:51:19.904Z,1.97
2018-01-04T10:53:46.089Z,2.13
2018-01-04T10:56:12.347Z,2.03
2018-01-04T10:58:38.571Z,1.83
2018-01-04T11:01:04.781Z,1.93
2018-01-04T11:03:31.324Z,1.83
2018-01-04T11:05:57.527Z,1.90
2018-01-04T11:08:23.737Z,1.93
2018-01-04T11:10:49.982Z,1.70
2018-01-04T11:13:16.520Z,1.77
2018-01-04T11:15:42.957Z,2.13
2018-01-04T11:18:09.200Z,1.93
2018-01-04T11:20:35.404Z,2.03
2018-01-04T11:23:01.604Z,1.80
2018-01-04T11:25:27.861Z,2.20
2018-01-04T11:27:54.038Z,2.50
2018-01-04T11:30:20.226Z,2.03
2018-01-04T11:32:46.485Z,1.90
2018-01-04T11:35:12.699Z,2.15
2018-01-04T11:37:39.012Z,2.83
2018-01-04T11:40:05.304Z,2.05
2018-01-04T11:42:31.487Z,2.10
2018-01-04T11:44:57.697Z,2.43
2018-01-04T11:47:24.176Z,1.80
2018-01-04T11:49:50.763Z,2.40
2018-01-04T11:52:16.995Z,2.03
2018-01-04T11:54:43.266Z,2.17
2018-01-04T11:57:09.486Z,1.90
2018-01-04T11:59:35.688Z,2.00
2018-01-04T12:02:01.933Z,3.10
2018-01-04T12:04:28.346Z,2.00
2018-01-04T12:06:54.560Z,2.60
2018-01-04T12:09:20.846Z,2.40
2018-01-04T12:11:47.059Z,2.60
2018-01-04T12:14:13.353Z,1.90
2018-01-04T12:16:39.633Z,2.20
2018-01-04T12:19:05.831Z,2.30
2018-01-04T12:21:32.012Z,2.60
2018-01-04T12:23:58.265Z,2.70
2018-01-04T12:26:24.490Z,2.63
2018-01-04T12:28:50.680Z,1.83
2018-01-04T12:31:16.951Z,2.70
2018-01-04T12:33:43.196Z,2.40
2018-01-04T12:36:09.411Z,2.50
2018-01-04T12:38:35.719Z,2.40
2018-01-04T12:41:01.931Z,2.30
2018-01-04T12:43:28.502Z,2.40
2018-01-04T12:45:54.781Z,2.60
2018-01-04T12:48:21.241Z,2.23
2018-01-04T12:50:47.486Z,3.20
2018-01-04T12:53:13.993Z,3.37
2018-01-04T12:55:40.561Z,2.40
2018-01-04T12:58:06.794Z,2.23
2018-01-04T13:00:33.091Z,3.20
2018-01-04T13:02:59.310Z,2.57
2018-01-04T13:05:25.488Z,2.77
2018-01-04T13:07:51.724Z,2.30
2018-01-04T13:10:17.953Z,2.97
2018-01-04T13:12:44.157Z,2.87
2018-01-04T13:15:10.424Z,3.13
2018-01-04T13:17:36.608Z,3.30
2018-01-04T13:20:02.810Z,2.77
2018-01-04T13:22:29.072Z,2.73
2018-01-04T13:24:55.300Z,2.40
2018-01-04T13:27:21.498Z,2.80
2018-01-04T13:29:47.771Z,2.30
2018-01-04T13:32:14.033Z,2.63
2018-01-04T13:34:40.262Z,2.40
2018-01-04T13:37:06.504Z,2.50
2018-01-04T13:39:32.802Z,2.80
2018-01-04T13:41:59.026Z,2.40
2018-01-04T13:44:25.264Z,2.30
2018-01-04T13:46:51.445Z,2.77
2018-01-04T13:49:17.620Z,3.50
2018-01-04T13:51:43.992Z,3.00
2018-01-04T13:54:10.206Z,3.30
2018-01-04T13:56:36.412Z,1.80
2018-01-04T13:59:02.678Z,2.43
2018-01-04T14:01:29.125Z,2.30
2018-01-04T14:03:55.586Z,3.30
2018-01-04T14:06:21.838Z,2.30
2018-01-04T14:08:48.017Z,2.60
2018-01-04T14:11:14.490Z,3.35
2018-01-04T14:13:40.715Z,2.40
2018-01-04T14:16:07.180Z,3.08
2018-01-04T14:18:33.361Z,2.43
2018-01-04T14:20:59.665Z,2.97
2018-01-04T14:23:25.871Z,2.57
2018-01-04T14:25:52.313Z,2.62
2018-01-04T14:28:18.597Z,2.85
2018-01-04T14:30:50.875Z,2.47
2018-01-04T14:33:17.136Z,2.12
2018-01-04T14:35:43.413Z,3.20
2018-01-04T14:38:09.607Z,3.12
2018-01-04T14:40:35.783Z,2.58
2018-01-04T14:43:02.053Z,3.23
2018-01-04T14:45:28.510Z,2.47
2018-01-04T14:47:54.733Z,2.30
2018-01-04T14:50:21.032Z,2.55
2018-01-04T14:52:47.313Z,2.50
2018-01-04T14:55:13.524Z,2.62
2018-01-04T14:57:39.823Z,3.30
2018-01-04T15:00:06.384Z,2.67
2018-01-04T15:02:32.606Z,2.37
2018-01-04T15:04:58.898Z,2.30
2018-01-04T15:07:25.126Z,2.72
2018-01-04T15:09:51.339Z,2.75
2018-01-04T15:12:17.694Z,2.47
2018-01-04T15:14:43.923Z,2.80
2018-01-04T15:17:10.129Z,3.23
2018-01-04T15:19:36.368Z,2.30
2018-01-04T15:22:02.590Z,2.47
2018-01-04T15:24:28.769Z,2.37
2018-01-04T15:26:55.030Z,2.40
2018-01-04T15:29:21.272Z,3.05
2018-01-04T15:31:47.705Z,2.35
2018-01-04T15:34:14.401Z,3.08
2018-01-04T15:36:40.602Z,1.97
2018-01-04T15:39:06.819Z,2.80
2018-01-04T15:41:33.114Z,2.40
2018-01-04T15:43:59.310Z,3.10
2018-01-04T15:46:25.501Z,2.53
2018-01-04T15:48:51.768Z,2.28
2018-01-04T15:51:17.981Z,2.55
2018-01-04T15:53:44.200Z,2.55
2018-01-04T15:56:10.481Z,2.60
2018-01-04T15:58:36.649Z,3.10
2018-01-04T16:01:02.852Z,3.05
2018-01-04T16:03:29.116Z,2.57
2018-01-04T16:05:55.350Z,2.90
2018-01-04T16:08:21.569Z,2.95
2018-01-04T16:10:47.872Z,2.10
2018-01-04T16:13:14.088Z,2.20
2018-01-04T16:15:40.289Z,2.95
2018-01-04T16:18:06.563Z,2.00
2018-01-04T16:20:32.754Z,2.77
2018-01-04T16:22:59.255Z,2.27
2018-01-04T16:25:25.529Z,2.92
2018-01-04T16:27:51.716Z,2.30
2018-01-04T16:30:17.949Z,2.40
2018-01-04T16:32:44.249Z,2.60
2018-01-04T16:35:10.510Z,2.70
2018-01-04T16:37:36.711Z,2.37
2018-01-04T16:40:02.953Z,2.33
2018-01-04T16:42:29.245Z,2.20
2018-01-04T16:44:55.453Z,1.90
2018-01-04T16:47:21.723Z,2.03
2018-01-04T16:49:47.939Z,2.03
2018-01-04T16:52:14.133Z,2.13
2018-01-04T16:54:40.656Z,2.22
2018-01-04T16:57:06.880Z,3.20
2018-01-04T16:59:33.122Z,2.00
2018-01-04T17:01:59.361Z,2.33
2018-01-04T17:04:25.585Z,2.00
2018-01-04T17:06:51.827Z,2.37
2018-01-04T17:09:18.109Z,2.10
2018-01-04T17:11:44.328Z,2.25
2018-01-04T17:14:10.528Z,2.43
2018-01-04T17:16:37.129Z,2.20
2018-01-04T17:19:03.332Z,2.20
2018-01-04T17:21:29.538Z,2.37
2018-01-04T17:23:55.802Z,1.95
2018-01-04T17:26:22.000Z,2.05
2018-01-04T17:28:48.212Z,2.53
2018-01-04T17:31:14.510Z,2.37
2018-01-04T17:33:40.722Z,1.90
2018-01-04T17:36:06.930Z,2.10
2018-01-04T17:38:33.218Z,1.60
2018-01-04T17:40:59.431Z,2.40
2018-01-04T17:43:25.759Z,1.90
2018-01-04T17:45:52.046Z,1.70
2018-01-04T17:48:18.256Z,2.37
2018-01-04T17:50:44.448Z,1.92
2018-01-04T17:53:10.715Z,2.22
2018-01-04T17:55:36.914Z,1.90
2018-01-04T17:58:03.102Z,1.75
2018-01-04T18:00:29.382Z,2.40
2018-01-04T18:02:55.581Z,2.30
2018-01-04T18:05:21.773Z,2.00
2018-01-04T18:07:48.264Z,2.10
2018-01-04T18:10:14.482Z,1.90
2018-01-04T18:12:40.694Z,2.50
2018-01-04T18:15:07.009Z,2.13
2018-01-04T18:17:33.465Z,1.93
2018-01-04T18:19:59.660Z,2.00
2018-01-04T18:22:25.917Z,2.20
2018-01-04T18:24:52.129Z,2.40
2018-01-04T18:27:18.360Z,2.20
2018-01-04T18:29:44.638Z,2.10
2018-01-04T18:32:11.089Z,2.20
2018-01-04T18:34:37.285Z,2.30
2018-01-04T18:37:03.774Z,2.63
2018-01-04T18:39:29.988Z,2.20
2018-01-04T18:42:02.093Z,2.27
2018-01-04T18:44:28.387Z,1.80
2018-01-04T18:46:54.583Z,2.23
2018-01-04T18:49:20.773Z,1.80
2018-01-04T18:51:47.041Z,2.50
2018-01-04T18:54:13.234Z,2.00
2018-01-04T18:56:39.751Z,2.17
2018-01-04T18:59:05.996Z,1.93
2018-01-04T19:01:32.184Z,1.77
2018-01-04T19:03:58.431Z,2.27
2018-01-04T19:06:24.672Z,2.27
2018-01-04T19:08:50.876Z,2.33
2018-01-04T19:11:17.075Z,2.47
2018-01-04T19:13:43.329Z,2.40
2018-01-04T19:16:09.519Z,1.93
2018-01-04T19:18:35.712Z,2.07
2018-01-04T19:21:01.986Z,2.27
2018-01-04T19:23:28.188Z,1.87
2018-01-04T19:25:54.386Z,2.30
2018-01-04T19:28:20.666Z,2.23
2018-01-04T19:30:46.884Z,2.00
2018-01-04T19:33:13.112Z,1.77
2018-01-04T19:35:39.403Z,2.10
2018-01-04T19:38:05.641Z,1.80
2018-01-04T19:40:31.828Z,1.50
2018-01-04T19:42:58.098Z,1.90
2018-01-04T19:45:24.376Z,2.27
2018-01-04T19:47:50.610Z,1.83
2018-01-04T19:50:16.888Z,2.23
2018-01-04T19:52:43.100Z,2.17
2018-01-04T19:55:09.302Z,2.30
2018-01-04T19:57:35.656Z,2.00
2018-01-04T20:00:01.843Z,2.20
2018-01-04T20:02:28.040Z,2.00
2018-01-04T20:04:54.554Z,1.70
2018-01-04T20:07:20.770Z,2.55
2018-01-04T20:09:46.955Z,2.00
2018-01-04T20:12:13.218Z,1.83
2018-01-04T20:14:39.468Z,1.83
2018-01-04T20:17:05.652Z,1.62
2018-01-04T20:19:31.901Z,1.87
2018-01-04T20:21:58.120Z,2.27
2018-01-04T20:24:24.392Z,1.60
2018-01-04T20:26:50.679Z,2.00
2018-01-04T20:29:16.869Z,1.57
2018-01-04T20:31:43.079Z,1.90
2018-01-04T20:34:09.684Z,1.73
2018-01-04T20:36:36.214Z,2.70
2018-01-04T20:39:02.513Z,2.00
2018-01-04T20:41:28.747Z,1.53
2018-01-04T20:43:55.188Z,2.20
2018-01-04T20:46:21.376Z,2.00
2018-01-04T20:48:47.637Z,1.50
2018-01-04T20:51:13.834Z,2.00
2018-01-04T20:53:40.085Z,2.37
2018-01-04T20:56:06.383Z,1.97
2018-01-04T20:58:32.603Z,1.50
2018-01-04T21:00:58.800Z,1.90
2018-01-04T21:03:25.036Z,1.70
2018-01-04T21:05:51.234Z,1.53
2018-01-04T21:08:17.482Z,1.70
2018-01-04T21:10:43.746Z,2.10
2018-01-04T21:13:09.980Z,1.70
2018-01-04T21:15:36.196Z,1.50
2018-01-04T21:18:02.446Z,1.80
2018-01-04T21:20:28.614Z,2.63
2018-01-04T21:22:54.845Z,1.63
2018-01-04T21:25:21.122Z,1.57
2018-01-04T21:27:47.315Z,1.50
2018-01-04T21:30:13.526Z,1.53
2018-01-04T21:32:39.785Z,1.23
2018-01-04T21:35:05.976Z,1.60
2018-01-04T21:37:32.151Z,1.50
2018-01-04T21:39:58.418Z,1.87
2018-01-04T21:42:24.616Z,1.40
2018-01-04T21:44:50.820Z,1.90
2018-01-04T21:47:17.309Z,1.77
2018-01-04T21:49:43.578Z,1.70
2018-01-04T21:52:09.753Z,1.90
2018-01-04T21:54:36.018Z,1.60
2018-01-04T21:57:02.244Z,1.60
2018-01-04T21:59:28.487Z,1.83
2018-01-04T22:01:54.734Z,2.13
2018-01-04T22:04:20.964Z,1.60
2018-01-04T22:06:47.153Z,1.77
2018-01-04T22:09:13.391Z,1.73
2018-01-04T22:11:39.594Z,1.83
2018-01-04T22:14:05.798Z,2.00
2018-01-04T22:16:32.070Z,1.43
2018-01-04T22:18:58.260Z,2.10
2018-01-04T22:21:24.476Z,1.57
2018-01-04T22:23:50.829Z,1.50
2018-01-04T22:26:17.014Z,1.50
2018-01-04T22:28:43.213Z,1.40
2018-01-04T22:31:09.525Z,1.27
2018-01-04T22:33:35.741Z,1.97
2018-01-04T22:36:01.949Z,1.63
2018-01-04T22:38:28.206Z,1.63
2018-01-04T22:40:54.430Z,1.70
2018-01-04T22:43:20.616Z,1.93
2018-01-04T22:45:46.891Z,1.90
2018-01-04T22:48:13.089Z,1.73
2018-01-04T22:50:39.362Z,2.20
2018-01-04T22:53:05.631Z,2.10
2018-01-04T22:55:31.830Z,1.70
2018-01-04T22:57:58.025Z,1.93
2018-01-04T23:00:24.388Z,1.83
2018-01-04T23:02:50.578Z,1.87
2018-01-04T23:05:16.776Z,1.40
2018-01-04T23:07:43.025Z,1.90
2018-01-04T23:10:09.237Z,2.57
2018-01-04T23:12:35.449Z,2.00
2018-01-04T23:15:01.702Z,2.13
2018-01-04T23:17:27.992Z,1.93
2018-01-04T23:19:54.193Z,1.77
2018-01-04T23:22:20.472Z,2.10
2018-01-04T23:24:46.666Z,2.03
2018-01-04T23:27:12.865Z,2.10
2018-01-04T23:29:39.143Z,2.27
2018-01-04T23:32:05.357Z,1.93
2018-01-04T23:34:31.567Z,2.23
2018-01-04T23:36:57.890Z,2.53
2018-01-04T23:39:24.108Z,2.30
2018-01-04T23:41:50.308Z,1.93
2018-01-04T23:44:16.637Z,2.00
2018-01-04T23:46:42.872Z,1.75
2018-01-04T23:49:09.086Z,1.90
2018-01-04T23:51:35.682Z,2.20
2018-01-04T23:54:01.900Z,2.37
2018-01-04T23:56:28.173Z,2.42
2018-01-04T23:58:54.450Z,2.70
